sensor_id;sensor_type;location;lat;lon;timestamp;pressure;altitude;pressure_sealevel;temperature;humidity
5753;BME280;2901;42.140;24.760;2024-03-23T00:55:23;99640.22;;;7.77;74.38
5753;BME280;2901;42.140;24.760;2024-03-23T00:57:48;99638.47;;;7.76;75.82
5753;BME280;2901;42.140;24.760;2024-03-23T01:00:14;99647.13;;;7.86;75.07
5753;BME280;2901;42.140;24.760;2024-03-23T01:02:39;99635.91;;;7.79;74.91
5753;BME280;2901;42.140;24.760;2024-03-23T01:05:05;99641.94;;;7.79;75.50
5753;BME280;2901;42.140;24.760;2024-03-23T01:07:30;99641.91;;;7.78;76.31
5753;BME280;2901;42.140;24.760;2024-03-23T01:09:55;99627.25;;;7.66;77.02
5753;BME280;2901;42.140;24.760;2024-03-23T01:12:21;99632.28;;;7.53;77.73
5753;BME280;2901;42.140;24.760;2024-03-23T01:14:46;99624.50;;;7.44;78.49
5753;BME280;2901;42.140;24.760;2024-03-23T01:17:12;99624.41;;;7.33;79.22
5753;BME280;2901;42.140;24.760;2024-03-23T01:19:37;99628.56;;;7.19;80.80
5753;BME280;2901;42.140;24.760;2024-03-23T01:22:04;99629.44;;;7.19;80.86
5753;BME280;2901;42.140;24.760;2024-03-23T01:24:30;99631.19;;;7.25;81.37
5753;BME280;2901;42.140;24.760;2024-03-23T01:26:55;99629.47;;;7.25;81.53
5753;BME280;2901;42.140;24.760;2024-03-23T01:29:20;99632.06;;;7.28;81.16
5753;BME280;2901;42.140;24.760;2024-03-23T01:31:46;99638.97;;;7.29;81.57
5753;BME280;2901;42.140;24.760;2024-03-23T01:34:11;99636.34;;;7.28;81.27
5753;BME280;2901;42.140;24.760;2024-03-23T01:36:37;99632.06;;;7.24;82.02
5753;BME280;2901;42.140;24.760;2024-03-23T01:39:03;99623.44;;;7.22;82.16
5753;BME280;2901;42.140;24.760;2024-03-23T01:41:28;99632.94;;;7.27;82.63
5753;BME280;2901;42.140;24.760;2024-03-23T01:43:55;99630.34;;;7.26;81.62
5753;BME280;2901;42.140;24.760;2024-03-23T01:46:20;99635.44;;;7.21;82.00
5753;BME280;2901;42.140;24.760;2024-03-23T01:48:46;99631.94;;;7.15;82.32
5753;BME280;2901;42.140;24.760;2024-03-23T01:51:12;99631.88;;;7.06;82.55
5753;BME280;2901;42.140;24.760;2024-03-23T01:53:38;99634.34;;;6.95;83.23
5753;BME280;2901;42.140;24.760;2024-03-23T01:56:03;99641.06;;;6.83;84.35
5753;BME280;2901;42.140;24.760;2024-03-23T01:58:29;99632.38;;;6.73;85.17
5753;BME280;2901;42.140;24.760;2024-03-23T02:00:54;99641.78;;;6.68;86.17
5753;BME280;2901;42.140;24.760;2024-03-23T02:03:23;99645.13;;;6.61;86.63
5753;BME280;2901;42.140;24.760;2024-03-23T02:05:50;99640.72;;;6.51;87.34
5753;BME280;2901;42.140;24.760;2024-03-23T02:08:17;99633.84;;;6.50;88.60
5753;BME280;2901;42.140;24.760;2024-03-23T02:10:43;99643.22;;;6.46;89.18
5753;BME280;2901;42.140;24.760;2024-03-23T02:13:09;99638.03;;;6.43;89.08
5753;BME280;2901;42.140;24.760;2024-03-23T02:15:34;99623.38;;;6.35;89.46
5753;BME280;2901;42.140;24.760;2024-03-23T02:18:00;99627.75;;;6.43;89.86
5753;BME280;2901;42.140;24.760;2024-03-23T02:20:25;99635.56;;;6.52;89.56
5753;BME280;2901;42.140;24.760;2024-03-23T02:22:53;99630.44;;;6.51;89.10
5753;BME280;2901;42.140;24.760;2024-03-23T02:25:18;99636.44;;;6.53;89.28
5753;BME280;2901;42.140;24.760;2024-03-23T02:27:44;99633.88;;;6.53;89.58
5753;BME280;2901;42.140;24.760;2024-03-23T02:30:09;99627.03;;;6.53;89.15
5753;BME280;2901;42.140;24.760;2024-03-23T02:32:35;99639.91;;;6.55;89.97
5753;BME280;2901;42.140;24.760;2024-03-23T02:35:00;99631.34;;;6.57;89.95
5753;BME280;2901;42.140;24.760;2024-03-23T02:37:26;99623.59;;;6.53;90.17
5753;BME280;2901;42.140;24.760;2024-03-23T02:39:51;99627.09;;;6.58;89.72
5753;BME280;2901;42.140;24.760;2024-03-23T02:42:16;99637.47;;;6.67;89.51
5753;BME280;2901;42.140;24.760;2024-03-23T02:44:44;99618.59;;;6.65;89.62
5753;BME280;2901;42.140;24.760;2024-03-23T02:47:10;99631.53;;;6.72;88.25
5753;BME280;2901;42.140;24.760;2024-03-23T02:49:35;99632.28;;;6.65;89.22
5753;BME280;2901;42.140;24.760;2024-03-23T02:52:01;99635.66;;;6.60;88.89
5753;BME280;2901;42.140;24.760;2024-03-23T02:54:26;99631.28;;;6.51;89.46
5753;BME280;2901;42.140;24.760;2024-03-23T02:56:51;99620.94;;;6.45;89.32
5753;BME280;2901;42.140;24.760;2024-03-23T02:59:17;99630.34;;;6.45;90.57
5753;BME280;2901;42.140;24.760;2024-03-23T03:01:42;99624.38;;;6.49;90.57
5753;BME280;2901;42.140;24.760;2024-03-23T03:04:07;99627.78;;;6.46;89.63
5753;BME280;2901;42.140;24.760;2024-03-23T03:06:33;99623.50;;;6.47;89.19
5753;BME280;2901;42.140;24.760;2024-03-23T03:08:58;99602.78;;;6.32;89.63
5753;BME280;2901;42.140;24.760;2024-03-23T03:11:24;99627.81;;;6.48;90.03
5753;BME280;2901;42.140;24.760;2024-03-23T03:13:49;99625.25;;;6.48;89.81
5753;BME280;2901;42.140;24.760;2024-03-23T03:16:15;99623.53;;;6.50;89.53
5753;BME280;2901;42.140;24.760;2024-03-23T03:18:40;99622.72;;;6.51;89.83
5753;BME280;2901;42.140;24.760;2024-03-23T03:21:06;99617.66;;;6.58;89.74
5753;BME280;2901;42.140;24.760;2024-03-23T03:23:37;99622.84;;;6.61;88.98
5753;BME280;2901;42.140;24.760;2024-03-23T03:26:02;99608.25;;;6.60;88.62
5753;BME280;2901;42.140;24.760;2024-03-23T03:28:28;99621.97;;;6.62;88.66
5753;BME280;2901;42.140;24.760;2024-03-23T03:30:56;99619.41;;;6.61;88.77
5753;BME280;2901;42.140;24.760;2024-03-23T03:33:21;99616.81;;;6.61;88.69
5753;BME280;2901;42.140;24.760;2024-03-23T03:35:47;99616.81;;;6.61;88.98
5753;BME280;2901;42.140;24.760;2024-03-23T03:38:12;99630.56;;;6.63;88.67
5753;BME280;2901;42.140;24.760;2024-03-23T03:40:37;99629.69;;;6.62;88.75
5753;BME280;2901;42.140;24.760;2024-03-23T03:43:03;99618.44;;;6.51;88.91
5753;BME280;2901;42.140;24.760;2024-03-23T03:45:28;99633.84;;;6.50;88.63
5753;BME280;2901;42.140;24.760;2024-03-23T03:47:54;99637.91;;;6.33;88.88
5753;BME280;2901;42.140;24.760;2024-03-23T03:50:21;99633.59;;;6.29;88.41
5753;BME280;2901;42.140;24.760;2024-03-23T03:52:46;99636.06;;;6.21;88.25
5753;BME280;2901;42.140;24.760;2024-03-23T03:55:16;99645.41;;;6.16;88.89
5753;BME280;2901;42.140;24.760;2024-03-23T03:57:41;99642.91;;;6.20;88.94
5753;BME280;2901;42.140;24.760;2024-03-23T04:00:07;99638.59;;;6.19;88.20
5753;BME280;2901;42.140;24.760;2024-03-23T04:02:36;99634.13;;;6.06;87.64
5753;BME280;2901;42.140;24.760;2024-03-23T04:05:02;99637.44;;;5.98;87.10
5753;BME280;2901;42.140;24.760;2024-03-23T04:07:28;99640.63;;;5.83;87.41
5753;BME280;2901;42.140;24.760;2024-03-23T04:09:53;99649.19;;;5.82;87.10
5753;BME280;2901;42.140;24.760;2024-03-23T04:12:19;99649.03;;;5.71;87.45
5753;BME280;2901;42.140;24.760;2024-03-23T04:14:45;99646.28;;;5.61;87.98
5753;BME280;2901;42.140;24.760;2024-03-23T04:17:11;99634.91;;;5.45;88.89
5753;BME280;2901;42.140;24.760;2024-03-23T04:19:36;99649.41;;;5.42;90.00
5753;BME280;2901;42.140;24.760;2024-03-23T04:22:02;99661.94;;;5.25;90.78
5753;BME280;2901;42.140;24.760;2024-03-23T04:24:28;99658.50;;;5.23;91.45
5753;BME280;2901;42.140;24.760;2024-03-23T04:26:53;99650.81;;;5.24;91.11
5753;BME280;2901;42.140;24.760;2024-03-23T04:29:19;99659.44;;;5.27;91.63
5753;BME280;2901;42.140;24.760;2024-03-23T04:31:44;99655.94;;;5.23;92.01
5753;BME280;2901;42.140;24.760;2024-03-23T04:34:10;99663.66;;;5.24;92.24
5753;BME280;2901;42.140;24.760;2024-03-23T04:36:35;99663.69;;;5.26;91.87
5753;BME280;2901;42.140;24.760;2024-03-23T04:39:00;99671.16;;;5.12;92.85
5753;BME280;2901;42.140;24.760;2024-03-23T04:41:26;99672.69;;;5.04;93.25
5753;BME280;2901;42.140;24.760;2024-03-23T04:43:52;99674.38;;;5.02;93.24
5753;BME280;2901;42.140;24.760;2024-03-23T04:46:17;99676.84;;;4.98;93.56
5753;BME280;2901;42.140;24.760;2024-03-23T04:48:42;99671.66;;;4.95;94.22
5753;BME280;2901;42.140;24.760;2024-03-23T04:51:10;99662.06;;;4.83;94.35
5753;BME280;2901;42.140;24.760;2024-03-23T04:53:37;99674.19;;;4.92;94.54
5753;BME280;2901;42.140;24.760;2024-03-23T04:56:03;99674.28;;;4.98;95.11
5753;BME280;2901;42.140;24.760;2024-03-23T04:58:29;99679.63;;;5.08;94.82
5753;BME280;2901;42.140;24.760;2024-03-23T05:00:55;99671.28;;;5.20;94.21
5753;BME280;2901;42.140;24.760;2024-03-23T05:03:21;99661.13;;;5.26;92.81
5753;BME280;2901;42.140;24.760;2024-03-23T05:05:47;99661.19;;;5.31;93.03
5753;BME280;2901;42.140;24.760;2024-03-23T05:08:14;99668.09;;;5.35;93.01
5753;BME280;2901;42.140;24.760;2024-03-23T05:10:41;99666.50;;;5.40;92.50
5753;BME280;2901;42.140;24.760;2024-03-23T05:13:06;99649.41;;;5.42;91.64
5753;BME280;2901;42.140;24.760;2024-03-23T05:15:32;99666.00;;;5.62;91.71
5753;BME280;2901;42.140;24.760;2024-03-23T05:17:57;99662.69;;;5.69;90.90
5753;BME280;2901;42.140;24.760;2024-03-23T05:20:23;99651.59;;;5.71;90.09
5753;BME280;2901;42.140;24.760;2024-03-23T05:22:49;99653.38;;;5.77;89.57
5753;BME280;2901;42.140;24.760;2024-03-23T05:25:14;99658.78;;;5.92;88.88
5753;BME280;2901;42.140;24.760;2024-03-23T05:27:41;99653.81;;;6.04;88.51
5753;BME280;2901;42.140;24.760;2024-03-23T05:30:07;99650.41;;;6.05;88.14
5753;BME280;2901;42.140;24.760;2024-03-23T05:32:34;99663.34;;;6.11;86.57
5753;BME280;2901;42.140;24.760;2024-03-23T05:34:59;99660.69;;;6.05;87.21
5753;BME280;2901;42.140;24.760;2024-03-23T05:37:25;99659.88;;;6.08;87.21
5753;BME280;2901;42.140;24.760;2024-03-23T05:39:51;99663.47;;;6.20;87.19
5753;BME280;2901;42.140;24.760;2024-03-23T05:42:17;99660.13;;;6.29;86.91
5753;BME280;2901;42.140;24.760;2024-03-23T05:44:45;99655.06;;;6.32;86.03
5753;BME280;2901;42.140;24.760;2024-03-23T05:47:11;99656.88;;;6.41;86.28
5753;BME280;2901;42.140;24.760;2024-03-23T05:49:39;99647.53;;;6.49;85.32
5753;BME280;2901;42.140;24.760;2024-03-23T05:52:07;99652.84;;;6.62;85.12
5753;BME280;2901;42.140;24.760;2024-03-23T05:54:33;99655.56;;;6.73;84.38
5753;BME280;2901;42.140;24.760;2024-03-23T05:56:58;99652.25;;;6.85;84.38
5753;BME280;2901;42.140;24.760;2024-03-23T05:59:24;99660.09;;;6.98;84.37
5753;BME280;2901;42.140;24.760;2024-03-23T06:01:50;99645.66;;;7.12;84.01
5753;BME280;2901;42.140;24.760;2024-03-23T06:04:15;99649.25;;;7.26;81.78
5753;BME280;2901;42.140;24.760;2024-03-23T06:06:40;99651.06;;;7.40;80.13
5753;BME280;2901;42.140;24.760;2024-03-23T06:09:06;99654.53;;;7.45;79.50
5753;BME280;2901;42.140;24.760;2024-03-23T06:11:31;99654.53;;;7.45;78.45
5753;BME280;2901;42.140;24.760;2024-03-23T06:13:56;99645.97;;;7.46;78.84
5753;BME280;2901;42.140;24.760;2024-03-23T06:16:22;99647.81;;;7.60;78.51
5753;BME280;2901;42.140;24.760;2024-03-23T06:18:52;99641.84;;;7.66;78.58
5753;BME280;2901;42.140;24.760;2024-03-23T06:21:17;99650.56;;;7.86;77.17
5753;BME280;2901;42.140;24.760;2024-03-23T06:23:43;99652.25;;;7.84;75.35
5753;BME280;2901;42.140;24.760;2024-03-23T06:26:13;99649.75;;;7.92;75.66
5753;BME280;2901;42.140;24.760;2024-03-23T06:28:39;99619.59;;;7.80;75.13
5753;BME280;2901;42.140;24.760;2024-03-23T06:31:09;99643.78;;;8.00;74.45
5753;BME280;2901;42.140;24.760;2024-03-23T06:33:35;99651.56;;;8.06;74.05
5753;BME280;2901;42.140;24.760;2024-03-23T06:36:00;99653.28;;;8.06;73.53
5753;BME280;2901;42.140;24.760;2024-03-23T06:38:25;99649.81;;;8.07;74.66
5753;BME280;2901;42.140;24.760;2024-03-23T06:40:51;99652.50;;;8.19;74.17
5753;BME280;2901;42.140;24.760;2024-03-23T06:43:18;99648.31;;;8.36;73.08
5753;BME280;2901;42.140;24.760;2024-03-23T06:45:43;99645.75;;;8.41;71.65
5753;BME280;2901;42.140;24.760;2024-03-23T06:48:09;99641.53;;;8.64;71.44
5753;BME280;2901;42.140;24.760;2024-03-23T06:50:34;99647.63;;;8.87;71.02
5753;BME280;2901;42.140;24.760;2024-03-23T06:53:00;99639.94;;;9.05;69.98
5753;BME280;2901;42.140;24.760;2024-03-23T06:55:29;99643.41;;;9.15;68.10
5753;BME280;2901;42.140;24.760;2024-03-23T06:57:55;99653.75;;;9.33;67.75
5753;BME280;2901;42.140;24.760;2024-03-23T07:00:20;99637.38;;;9.46;66.41
5753;BME280;2901;42.140;24.760;2024-03-23T07:02:46;99637.41;;;9.45;65.98
5753;BME280;2901;42.140;24.760;2024-03-23T07:05:11;99627.91;;;9.50;66.02
5753;BME280;2901;42.140;24.760;2024-03-23T07:07:38;99628.78;;;9.55;64.23
5753;BME280;2901;42.140;24.760;2024-03-23T07:10:05;99631.34;;;9.52;64.07
5753;BME280;2901;42.140;24.760;2024-03-23T07:12:30;99634.81;;;9.61;64.72
5753;BME280;2901;42.140;24.760;2024-03-23T07:14:56;99633.06;;;9.86;64.59
5753;BME280;2901;42.140;24.760;2024-03-23T07:17:21;99633.06;;;9.90;63.28
5753;BME280;2901;42.140;24.760;2024-03-23T07:19:46;99621.81;;;10.04;62.92
5753;BME280;2901;42.140;24.760;2024-03-23T07:22:12;99626.97;;;10.11;61.74
5753;BME280;2901;42.140;24.760;2024-03-23T07:24:39;99624.38;;;10.29;61.89
5753;BME280;2901;42.140;24.760;2024-03-23T07:27:05;99632.97;;;10.40;60.88
5753;BME280;2901;42.140;24.760;2024-03-23T07:29:31;99627.78;;;10.34;60.25
5753;BME280;2901;42.140;24.760;2024-03-23T07:31:56;99625.19;;;10.40;59.61
5753;BME280;2901;42.140;24.760;2024-03-23T07:34:22;99611.31;;;10.57;59.45
5753;BME280;2901;42.140;24.760;2024-03-23T07:36:47;99613.84;;;10.67;58.99
5753;BME280;2901;42.140;24.760;2024-03-23T07:39:12;99606.19;;;10.41;57.08
5753;BME280;2901;42.140;24.760;2024-03-23T07:41:38;99611.41;;;10.35;58.98
5753;BME280;2901;42.140;24.760;2024-03-23T07:44:03;99613.13;;;10.36;58.58
5753;BME280;2901;42.140;24.760;2024-03-23T07:46:29;99617.38;;;10.53;57.75
5753;BME280;2901;42.140;24.760;2024-03-23T07:48:54;99616.47;;;10.63;57.30
5753;BME280;2901;42.140;24.760;2024-03-23T07:51:23;99607.81;;;10.70;57.84
5753;BME280;2901;42.140;24.760;2024-03-23T07:53:48;99597.38;;;10.79;56.83
5753;BME280;2901;42.140;24.760;2024-03-23T07:56:15;99599.03;;;10.90;56.02
5753;BME280;2901;42.140;24.760;2024-03-23T07:58:41;99598.97;;;11.03;54.95
5753;BME280;2901;42.140;24.760;2024-03-23T08:01:08;99598.06;;;11.05;54.10
5753;BME280;2901;42.140;24.760;2024-03-23T08:03:38;99591.97;;;11.14;53.81
5753;BME280;2901;42.140;24.760;2024-03-23T08:06:11;99589.34;;;11.17;52.64
5753;BME280;2901;42.140;24.760;2024-03-23T08:08:38;99586.75;;;11.17;53.09
5753;BME280;2901;42.140;24.760;2024-03-23T08:11:04;99581.56;;;11.18;52.92
5753;BME280;2901;42.140;24.760;2024-03-23T08:13:30;99588.34;;;11.33;52.62
5753;BME280;2901;42.140;24.760;2024-03-23T08:15:59;99577.97;;;11.34;53.38
5753;BME280;2901;42.140;24.760;2024-03-23T08:18:24;99582.19;;;11.46;52.52
5753;BME280;2901;42.140;24.760;2024-03-23T08:21:04;99582.00;;;11.72;52.03
5753;BME280;2901;42.140;24.760;2024-03-23T08:23:33;99570.59;;;11.88;50.32
5753;BME280;2901;42.140;24.760;2024-03-23T08:26:00;99571.28;;;12.02;50.07
5753;BME280;2901;42.140;24.760;2024-03-23T08:28:26;99567.53;;;12.27;49.01
5753;BME280;2901;42.140;24.760;2024-03-23T08:30:55;99559.50;;;12.45;48.12
5753;BME280;2901;42.140;24.760;2024-03-23T08:33:22;99553.31;;;12.57;47.53
5753;BME280;2901;42.140;24.760;2024-03-23T08:36:06;99555.72;;;12.71;46.67
5753;BME280;2901;42.140;24.760;2024-03-23T08:38:32;99555.81;;;12.62;46.41
5753;BME280;2901;42.140;24.760;2024-03-23T08:41:01;99554.09;;;12.62;46.17
5753;BME280;2901;42.140;24.760;2024-03-23T08:43:28;99543.78;;;12.58;46.76
5753;BME280;2901;42.140;24.760;2024-03-23T08:46:03;99536.81;;;12.61;46.36
5753;BME280;2901;42.140;24.760;2024-03-23T08:48:28;99544.22;;;12.87;46.20
5753;BME280;2901;42.140;24.760;2024-03-23T08:51:04;99538.88;;;12.94;45.63
5753;BME280;2901;42.140;24.760;2024-03-23T08:53:29;99539.50;;;13.13;45.05
5753;BME280;2901;42.140;24.760;2024-03-23T08:55:59;99528.66;;;13.37;44.85
5753;BME280;2901;42.140;24.760;2024-03-23T08:58:27;99521.50;;;13.51;44.47
5753;BME280;2901;42.140;24.760;2024-03-23T09:00:54;99516.84;;;13.67;43.56
5753;BME280;2901;42.140;24.760;2024-03-23T09:03:24;99523.03;;;13.63;43.41
5753;BME280;2901;42.140;24.760;2024-03-23T09:05:51;99522.66;;;13.83;42.94
5753;BME280;2901;42.140;24.760;2024-03-23T09:08:17;99522.34;;;13.96;42.33
5753;BME280;2901;42.140;24.760;2024-03-23T09:10:43;99513.72;;;13.96;41.90
5753;BME280;2901;42.140;24.760;2024-03-23T09:13:08;99501.38;;;14.04;41.98
5753;BME280;2901;42.140;24.760;2024-03-23T09:15:35;99506.94;;;14.29;41.77
5753;BME280;2901;42.140;24.760;2024-03-23T09:18:02;99497.00;;;14.47;42.09
5753;BME280;2901;42.140;24.760;2024-03-23T09:20:27;99489.13;;;14.50;42.01
5753;BME280;2901;42.140;24.760;2024-03-23T09:22:53;99489.88;;;14.55;41.48
5753;BME280;2901;42.140;24.760;2024-03-23T09:25:18;99477.69;;;14.58;41.42
5753;BME280;2901;42.140;24.760;2024-03-23T09:27:49;99476.25;;;14.44;42.26
5753;BME280;2901;42.140;24.760;2024-03-23T09:30:15;99477.06;;;14.46;43.02
5753;BME280;2901;42.140;24.760;2024-03-23T09:32:44;99470.88;;;14.52;43.11
5753;BME280;2901;42.140;24.760;2024-03-23T09:35:10;99475.00;;;14.61;42.99
5753;BME280;2901;42.140;24.760;2024-03-23T09:37:35;99480.94;;;14.67;43.22
5753;BME280;2901;42.140;24.760;2024-03-23T09:40:01;99472.31;;;14.64;42.96
5753;BME280;2901;42.140;24.760;2024-03-23T09:42:26;99467.56;;;14.81;42.76
5753;BME280;2901;42.140;24.760;2024-03-23T09:44:52;99470.66;;;14.96;43.86
5753;BME280;2901;42.140;24.760;2024-03-23T09:47:20;99462.81;;;14.98;43.31
5753;BME280;2901;42.140;24.760;2024-03-23T09:49:46;99462.25;;;15.19;42.84
5753;BME280;2901;42.140;24.760;2024-03-23T09:52:11;99457.00;;;15.21;42.71
5753;BME280;2901;42.140;24.760;2024-03-23T09:54:36;99453.41;;;15.25;42.41
5753;BME280;2901;42.140;24.760;2024-03-23T09:57:03;99445.97;;;15.42;42.77
5753;BME280;2901;42.140;24.760;2024-03-23T09:59:29;99435.22;;;15.55;42.42
5753;BME280;2901;42.140;24.760;2024-03-23T10:01:55;99433.34;;;15.61;41.53
5753;BME280;2901;42.140;24.760;2024-03-23T10:04:41;99427.34;;;15.57;42.40
5753;BME280;2901;42.140;24.760;2024-03-23T10:07:18;99422.72;;;15.67;42.37
5753;BME280;2901;42.140;24.760;2024-03-23T10:09:44;99424.84;;;15.83;41.62
5753;BME280;2901;42.140;24.760;2024-03-23T10:12:14;99412.06;;;16.03;40.98
5753;BME280;2901;42.140;24.760;2024-03-23T10:14:40;99407.16;;;16.21;40.51
5753;BME280;2901;42.140;24.760;2024-03-23T10:17:22;99410.31;;;16.32;40.03
5753;BME280;2901;42.140;24.760;2024-03-23T10:19:52;99400.66;;;16.34;40.11
5753;BME280;2901;42.140;24.760;2024-03-23T10:22:21;99403.53;;;16.26;40.06
5753;BME280;2901;42.140;24.760;2024-03-23T10:24:48;99397.69;;;16.46;39.37
5753;BME280;2901;42.140;24.760;2024-03-23T10:27:20;99386.63;;;16.66;38.53
5753;BME280;2901;42.140;24.760;2024-03-23T10:29:46;99384.03;;;16.90;37.76
5753;BME280;2901;42.140;24.760;2024-03-23T10:32:14;99386.72;;;17.13;37.14
5753;BME280;2901;42.140;24.760;2024-03-23T10:34:39;99380.09;;;17.28;36.85
5753;BME280;2901;42.140;24.760;2024-03-23T10:37:06;99371.78;;;17.40;36.84
5753;BME280;2901;42.140;24.760;2024-03-23T10:39:41;99364.50;;;17.25;37.40
5753;BME280;2901;42.140;24.760;2024-03-23T10:42:08;99356.56;;;16.77;37.94
5753;BME280;2901;42.140;24.760;2024-03-23T10:44:35;99368.06;;;16.98;38.12
5753;BME280;2901;42.140;24.760;2024-03-23T10:47:02;99358.66;;;17.17;38.02
5753;BME280;2901;42.140;24.760;2024-03-23T10:49:35;99352.78;;;17.35;37.41
5753;BME280;2901;42.140;24.760;2024-03-23T10:52:05;99339.22;;;17.24;37.46
5753;BME280;2901;42.140;24.760;2024-03-23T10:54:32;99344.19;;;17.32;37.24
5753;BME280;2901;42.140;24.760;2024-03-23T10:57:07;99344.00;;;17.36;36.23
5753;BME280;2901;42.140;24.760;2024-03-23T10:59:36;99331.03;;;17.58;36.28
5753;BME280;2901;42.140;24.760;2024-03-23T11:02:02;99339.53;;;17.86;35.89
5753;BME280;2901;42.140;24.760;2024-03-23T11:04:36;99329.63;;;17.94;35.17
5753;BME280;2901;42.140;24.760;2024-03-23T11:09:49;99313.72;;;18.21;34.84
5753;BME280;2901;42.140;24.760;2024-03-23T11:15:12;99299.53;;;18.46;33.91
5753;BME280;2901;42.140;24.760;2024-03-23T11:17:38;99307.59;;;18.63;34.04
5753;BME280;2901;42.140;24.760;2024-03-23T11:20:05;99280.66;;;18.60;33.42
5753;BME280;2901;42.140;24.760;2024-03-23T11:22:41;99289.69;;;18.53;33.64
5753;BME280;2901;42.140;24.760;2024-03-23T11:25:20;99272.91;;;18.57;33.85
5753;BME280;2901;42.140;24.760;2024-03-23T11:27:48;99268.84;;;18.50;33.27
5753;BME280;2901;42.140;24.760;2024-03-23T11:30:24;99258.59;;;18.44;33.42
5753;BME280;2901;42.140;24.760;2024-03-23T11:32:51;99266.16;;;18.30;33.64
5753;BME280;2901;42.140;24.760;2024-03-23T11:35:31;99256.75;;;18.46;33.53
5753;BME280;2901;42.140;24.760;2024-03-23T11:40:27;99235.25;;;17.96;33.38
5753;BME280;2901;42.140;24.760;2024-03-23T11:42:56;99232.31;;;18.03;33.51
5753;BME280;2901;42.140;24.760;2024-03-23T11:45:21;99239.56;;;17.97;33.50
5753;BME280;2901;42.140;24.760;2024-03-23T11:47:47;99239.06;;;18.09;33.40
5753;BME280;2901;42.140;24.760;2024-03-23T11:50:19;99217.59;;;18.41;33.15
5753;BME280;2901;42.140;24.760;2024-03-23T11:52:45;99219.03;;;18.48;33.34
5753;BME280;2901;42.140;24.760;2024-03-23T11:55:10;99213.53;;;18.34;34.15
5753;BME280;2901;42.140;24.760;2024-03-23T11:57:36;99213.78;;;18.48;33.89
5753;BME280;2901;42.140;24.760;2024-03-23T12:00:01;99202.25;;;18.54;33.82
5753;BME280;2901;42.140;24.760;2024-03-23T12:02:27;99207.44;;;18.74;33.62
5753;BME280;2901;42.140;24.760;2024-03-23T12:04:52;99191.16;;;18.86;33.05
5753;BME280;2901;42.140;24.760;2024-03-23T12:07:19;99190.94;;;18.72;32.63
5753;BME280;2901;42.140;24.760;2024-03-23T12:09:46;99182.19;;;18.72;32.13
5753;BME280;2901;42.140;24.760;2024-03-23T12:12:18;99185.56;;;18.94;31.75
5753;BME280;2901;42.140;24.760;2024-03-23T12:14:44;99189.28;;;19.08;31.36
5753;BME280;2901;42.140;24.760;2024-03-23T12:17:14;99184.44;;;19.18;31.01
5753;BME280;2901;42.140;24.760;2024-03-23T12:19:41;99176.72;;;19.15;30.99
5753;BME280;2901;42.140;24.760;2024-03-23T12:22:09;99172.03;;;19.22;31.38
5753;BME280;2901;42.140;24.760;2024-03-23T12:24:35;99166.22;;;18.96;31.57
5753;BME280;2901;42.140;24.760;2024-03-23T12:27:04;99165.06;;;18.83;31.40
5753;BME280;2901;42.140;24.760;2024-03-23T12:29:30;99164.84;;;18.69;32.05
5753;BME280;2901;42.140;24.760;2024-03-23T12:31:59;99152.47;;;18.52;31.65
5753;BME280;2901;42.140;24.760;2024-03-23T12:34:25;99151.59;;;18.72;31.18
5753;BME280;2901;42.140;24.760;2024-03-23T12:36:50;99147.34;;;18.70;31.40
5753;BME280;2901;42.140;24.760;2024-03-23T12:39:16;99131.38;;;18.74;30.86
5753;BME280;2901;42.140;24.760;2024-03-23T12:41:41;99143.16;;;18.84;29.84
5753;BME280;2901;42.140;24.760;2024-03-23T12:44:06;99140.03;;;18.95;30.15
5753;BME280;2901;42.140;24.760;2024-03-23T12:46:33;99125.50;;;19.06;29.97
5753;BME280;2901;42.140;24.760;2024-03-23T12:48:59;99128.56;;;19.16;30.54
5753;BME280;2901;42.140;24.760;2024-03-23T12:51:24;99133.34;;;19.25;30.92
5753;BME280;2901;42.140;24.760;2024-03-23T12:53:50;99120.50;;;19.38;30.31
5753;BME280;2901;42.140;24.760;2024-03-23T12:56:15;99111.06;;;19.34;30.15
5753;BME280;2901;42.140;24.760;2024-03-23T12:58:41;99110.84;;;19.38;30.10
5753;BME280;2901;42.140;24.760;2024-03-23T13:01:06;99102.94;;;19.57;29.63
5753;BME280;2901;42.140;24.760;2024-03-23T13:03:32;99096.56;;;19.62;29.41
5753;BME280;2901;42.140;24.760;2024-03-23T13:05:57;99096.56;;;19.62;29.24
5753;BME280;2901;42.140;24.760;2024-03-23T13:08:22;99095.13;;;19.73;28.59
5753;BME280;2901;42.140;24.760;2024-03-23T13:10:51;99099.09;;;19.81;28.46
5753;BME280;2901;42.140;24.760;2024-03-23T13:13:17;99095.03;;;19.76;29.19
5753;BME280;2901;42.140;24.760;2024-03-23T13:15:42;99092.22;;;19.79;29.05
5753;BME280;2901;42.140;24.760;2024-03-23T13:18:07;99090.06;;;19.87;28.66
5753;BME280;2901;42.140;24.760;2024-03-23T13:20:35;99080.34;;;19.89;28.96
5753;BME280;2901;42.140;24.760;2024-03-23T13:23:01;99082.41;;;19.82;28.18
5753;BME280;2901;42.140;24.760;2024-03-23T13:25:26;99080.88;;;19.95;27.39
5753;BME280;2901;42.140;24.760;2024-03-23T13:27:52;99074.75;;;19.95;27.74
5753;BME280;2901;42.140;24.760;2024-03-23T13:30:17;99067.09;;;20.07;28.15
5753;BME280;2901;42.140;24.760;2024-03-23T13:32:42;99060.91;;;20.08;28.53
5753;BME280;2901;42.140;24.760;2024-03-23T13:35:08;99062.94;;;20.19;28.76
5753;BME280;2901;42.140;24.760;2024-03-23T13:37:33;99059.34;;;20.22;28.78
5753;BME280;2901;42.140;24.760;2024-03-23T13:39:59;99060.66;;;20.13;28.25
5753;BME280;2901;42.140;24.760;2024-03-23T13:42:24;99060.59;;;20.14;28.48
5753;BME280;2901;42.140;24.760;2024-03-23T13:44:51;99054.16;;;20.03;27.83
5753;BME280;2901;42.140;24.760;2024-03-23T13:47:16;99049.06;;;20.00;28.05
5753;BME280;2901;42.140;24.760;2024-03-23T13:49:42;99046.22;;;20.04;28.22
5753;BME280;2901;42.140;24.760;2024-03-23T13:52:07;99040.44;;;19.98;28.15
5753;BME280;2901;42.140;24.760;2024-03-23T13:54:33;99039.22;;;19.88;27.92
5753;BME280;2901;42.140;24.760;2024-03-23T13:56:58;99035.03;;;19.84;27.78
5753;BME280;2901;42.140;24.760;2024-03-23T13:59:24;99031.38;;;19.86;27.94
5753;BME280;2901;42.140;24.760;2024-03-23T14:01:50;99020.50;;;19.77;28.07
5753;BME280;2901;42.140;24.760;2024-03-23T14:04:16;99028.22;;;19.80;27.82
5753;BME280;2901;42.140;24.760;2024-03-23T14:06:45;99017.56;;;19.83;26.84
5753;BME280;2901;42.140;24.760;2024-03-23T14:09:14;99019.34;;;19.82;26.59
5753;BME280;2901;42.140;24.760;2024-03-23T14:11:45;99018.66;;;19.79;27.26
5753;BME280;2901;42.140;24.760;2024-03-23T14:14:10;99018.50;;;19.82;27.34
5753;BME280;2901;42.140;24.760;2024-03-23T14:16:36;99010.94;;;19.76;27.77